Massey, Canada
Current Conditions -  °F | °C
As of 11:14 PM on Wednesday 26 Nov 2014 (Local Time) from CYZE Reporting Station
Light Snow Light Snow  
Wind Chill: -9°   Ceiling: 3700
Heat Index: -4°   Visibility: 9mi
Dew Point: -6°   Wind: 9mph
Humidity: 86%   Direction: 70°ENE
Pressure: 30.11"   Gusts: NA
Location:  46.21°N, 82.08°W
Report Text: CYZE 270414Z AUTO 07008KT 9SM -SN OVC037 M04/M06 A3011 RMK SLP207
Loading
Personal Weather Stations






























Interactive Weather Map New forecast layout! Learn more

10-Day Weather Forecast

Advertisements
Track Severe Weather on mobile